Time;durP1;ratioP1;P1;durP2;ratioP2;P2;SDS_P1;SDS_P2;PMS_P1;PMS_P2;Temp;Humidity;BMP_temperature;BMP_pressure;BME280_temperature;BME280_humidity;BME280_pressure;Samples;Min_cycle;Max_cycle;Signal;HPM_P1;HPM_P2
2022/09/15 00:00:52;;;;;;;13.55;12.35;;;15.60;99.90;;;;;;2093032;28;20492;-72
2022/09/15 00:01:52;;;;;;;14.82;13.32;;;15.60;99.90;;;;;;2093347;28;20528;-72
2022/09/15 00:02:53;;;;;;;15.07;13.57;;;15.60;99.90;;;;;;2092383;28;21499;-72
2022/09/15 00:03:54;;;;;;;16.67;13.88;;;15.60;99.90;;;;;;2090655;28;20029;-72
2022/09/15 00:04:54;;;;;;;13.88;12.50;;;15.60;99.90;;;;;;2092124;28;20021;-72
2022/09/15 00:05:55;;;;;;;15.82;14.15;;;15.60;99.90;;;;;;2091606;28;20130;-72
2022/09/15 00:06:55;;;;;;;17.92;16.20;;;15.60;99.90;;;;;;2091803;28;20029;-72
2022/09/15 00:07:56;;;;;;;17.13;15.32;;;15.60;99.90;;;;;;2090836;28;20054;-72
2022/09/15 00:08:58;;;;;;;18.95;14.98;;;15.60;99.90;;;;;;2091151;28;20036;-72
2022/09/15 00:09:58;;;;;;;16.83;15.10;;;15.60;99.90;;;;;;2091181;28;20115;-73
2022/09/15 00:11:23;;;;;;;14.70;13.13;;;15.60;99.90;;;;;;2090795;28;20040;-72
2022/09/15 00:12:25;;;;;;;15.98;12.38;;;15.60;99.90;;;;;;2089925;28;20121;-72
2022/09/15 00:13:25;;;;;;;16.60;14.32;;;15.60;99.90;;;;;;2091762;28;20769;-72
2022/09/15 00:14:26;;;;;;;15.85;13.63;;;15.60;99.90;;;;;;2091067;28;20021;-72
2022/09/15 00:15:26;;;;;;;17.52;15.15;;;15.60;99.90;;;;;;2087637;28;20388;-73
2022/09/15 00:16:29;;;;;;;16.10;14.60;;;15.50;99.90;;;;;;2092968;28;20016;-72
2022/09/15 00:17:32;;;;;;;18.25;16.40;;;15.50;99.90;;;;;;2091410;28;20029;-72
2022/09/15 00:18:34;;;;;;;17.20;15.40;;;15.60;99.90;;;;;;2091964;28;20723;-72
2022/09/15 00:19:35;;;;;;;14.45;12.80;;;15.60;99.90;;;;;;2091252;28;20110;-72
2022/09/15 00:20:40;;;;;;;17.10;15.38;;;15.50;99.90;;;;;;2090652;28;20028;-72
2022/09/15 00:21:41;;;;;;;15.60;14.10;;;15.50;99.90;;;;;;2090697;28;20033;-72
2022/09/15 00:22:42;;;;;;;14.85;13.35;;;15.60;99.90;;;;;;2091035;28;20028;-72
2022/09/15 00:23:43;;;;;;;13.73;12.43;;;15.60;99.90;;;;;;2091890;28;20028;-72
2022/09/15 00:24:48;;;;;;;15.95;14.30;;;15.50;99.90;;;;;;2091709;28;20016;-72
2022/09/15 00:25:51;;;;;;;15.23;13.60;;;15.50;99.90;;;;;;2091891;28;20024;-72
2022/09/15 00:26:51;;;;;;;14.25;12.32;;;15.50;99.90;;;;;;2092517;28;20032;-72
2022/09/15 00:27:52;;;;;;;17.88;15.98;;;15.50;99.90;;;;;;2093280;28;20108;-72
2022/09/15 00:28:52;;;;;;;16.17;13.88;;;15.50;99.90;;;;;;2092539;28;20068;-73
2022/09/15 00:29:53;;;;;;;17.70;15.55;;;15.50;99.90;;;;;;2093145;28;20029;-72
2022/09/15 00:30:54;;;;;;;15.80;14.20;;;15.50;99.90;;;;;;2092774;28;20514;-72
2022/09/15 00:31:55;;;;;;;14.07;12.68;;;15.50;99.90;;;;;;2092019;28;20051;-72
2022/09/15 00:32:55;;;;;;;12.25;10.27;;;15.50;99.90;;;;;;2092953;28;20025;-72
2022/09/15 00:33:58;;;;;;;16.95;15.23;;;15.50;99.90;;;;;;2091279;28;20434;-72
2022/09/15 00:34:58;;;;;;;15.80;14.40;;;15.50;99.90;;;;;;2091340;28;20060;-72
2022/09/15 00:36:03;;;;;;;15.48;14.18;;;15.40;99.90;;;;;;2100887;28;20085;-72
2022/09/15 00:37:04;;;;;;;15.95;14.43;;;15.40;99.90;;;;;;2098389;28;20026;-72
2022/09/15 00:38:05;;;;;;;22.05;13.20;;;15.40;99.90;;;;;;2091726;28;20032;-72
2022/09/15 00:39:06;;;;;;;17.60;15.70;;;15.40;99.90;;;;;;2092491;28;20024;-72
2022/09/15 00:40:07;;;;;;;12.57;11.38;;;15.40;99.90;;;;;;2095346;28;20029;-72
2022/09/15 00:41:10;;;;;;;15.32;14.02;;;15.40;99.90;;;;;;2095208;28;20016;-72
2022/09/15 00:42:19;;;;;;;15.30;13.77;;;15.40;99.90;;;;;;2092400;28;20676;-72
2022/09/15 00:43:58;;;;;;;16.42;14.85;;;15.40;99.90;;;;;;2090795;28;20021;-72
2022/09/15 00:45:01;;;;;;;15.75;13.93;;;15.40;99.90;;;;;;2093752;28;20021;-73
2022/09/15 00:46:01;;;;;;;18.92;17.02;;;15.30;99.90;;;;;;2091948;28;20029;-72
2022/09/15 00:47:05;;;;;;;16.05;14.45;;;15.40;99.90;;;;;;2092466;28;20029;-72
2022/09/15 00:48:10;;;;;;;17.15;15.35;;;15.40;99.90;;;;;;2092315;28;20012;-72
2022/09/15 00:49:11;;;;;;;17.42;15.70;;;15.30;99.90;;;;;;2090784;28;20194;-73
2022/09/15 00:50:15;;;;;;;19.95;17.88;;;15.30;99.90;;;;;;2092865;28;20028;-72
2022/09/15 00:51:24;;;;;;;19.20;16.65;;;15.30;99.90;;;;;;2101126;28;20105;-72
2022/09/15 00:52:34;;;;;;;16.30;14.73;;;15.30;99.90;;;;;;2097999;28;20424;-72
2022/09/15 00:53:36;;;;;;;21.02;17.73;;;15.30;99.90;;;;;;2092431;28;20066;-72
2022/09/15 00:54:57;;;;;;;19.45;17.40;;;15.30;99.90;;;;;;2092360;28;20033;-72
2022/09/15 00:56:00;;;;;;;14.52;13.07;;;15.30;99.90;;;;;;2092009;28;20021;-72
2022/09/15 00:57:05;;;;;;;19.40;17.35;;;15.20;99.90;;;;;;2091847;28;20062;-72
2022/09/15 00:58:08;;;;;;;18.52;16.63;;;15.20;99.90;;;;;;2092303;28;20019;-72
2022/09/15 00:59:14;;;;;;;15.52;13.93;;;15.20;99.90;;;;;;2093480;28;20017;-72
2022/09/15 01:00:18;;;;;;;18.25;16.48;;;15.20;99.90;;;;;;2089345;28;20132;-72
2022/09/15 01:01:19;;;;;;;16.55;14.95;;;15.20;99.90;;;;;;2091380;28;20036;-72
2022/09/15 01:02:32;;;;;;;15.68;14.07;;;15.20;99.90;;;;;;2091472;28;20503;-72
2022/09/15 01:03:33;;;;;;;15.82;14.13;;;15.20;99.90;;;;;;2091531;28;20161;-72
2022/09/15 01:04:33;;;;;;;15.00;13.70;;;15.20;99.90;;;;;;2091764;28;20024;-72
2022/09/15 01:05:52;;;;;;;15.48;13.90;;;15.10;99.90;;;;;;2090729;28;20575;-72
2022/09/15 01:06:57;;;;;;;16.52;14.82;;;15.10;99.90;;;;;;2092088;28;20021;-72
2022/09/15 01:08:04;;;;;;;16.75;15.15;;;15.10;99.90;;;;;;2092300;28;20032;-72
2022/09/15 01:09:23;;;;;;;16.83;14.82;;;15.10;99.90;;;;;;2089613;28;20053;-73
2022/09/15 01:10:34;;;;;;;14.30;12.88;;;15.10;99.90;;;;;;2090804;28;20020;-72
2022/09/15 01:11:35;;;;;;;17.27;15.55;;;15.00;99.90;;;;;;2090668;28;20055;-72
2022/09/15 01:12:35;;;;;;;21.27;15.48;;;15.00;99.90;;;;;;2091543;28;20032;-72
2022/09/15 01:13:36;;;;;;;17.48;15.77;;;15.00;99.90;;;;;;2092689;28;20021;-72
2022/09/15 01:14:39;;;;;;;16.48;14.77;;;15.00;99.90;;;;;;2093541;28;20506;-72
2022/09/15 01:16:05;;;;;;;14.70;13.27;;;15.00;99.90;;;;;;2093389;28;20017;-72
2022/09/15 01:17:35;;;;;;;14.48;12.68;;;15.00;99.90;;;;;;2093602;28;20028;-72
2022/09/15 01:19:12;;;;;;;16.30;13.20;;;14.90;99.90;;;;;;2083672;28;20444;-72
2022/09/15 01:20:34;;;;;;;13.15;11.98;;;14.90;99.90;;;;;;2090653;28;20755;-72
2022/09/15 01:21:49;;;;;;;15.77;14.27;;;14.90;99.90;;;;;;2092400;28;20030;-72
2022/09/15 01:23:11;;;;;;;13.38;12.25;;;14.80;99.90;;;;;;2091654;28;20046;-72
2022/09/15 01:24:24;;;;;;;13.55;12.35;;;14.80;99.90;;;;;;2093154;28;20529;-72
2022/09/15 01:25:46;;;;;;;16.42;14.90;;;14.80;99.90;;;;;;2091400;28;20063;-72
2022/09/15 01:27:05;;;;;;;17.25;15.45;;;14.80;99.90;;;;;;2092285;28;20234;-73
2022/09/15 01:28:42;;;;;;;15.02;13.50;;;14.80;99.90;;;;;;2093442;28;20073;-72
2022/09/15 01:30:03;;;;;;;13.65;12.35;;;14.70;99.90;;;;;;2092560;28;20075;-72
2022/09/15 01:31:13;;;;;;;15.43;11.75;;;14.70;99.90;;;;;;2093884;28;20039;-72
2022/09/15 01:34:05;;;;;;;15.35;13.80;;;14.70;99.90;;;;;;2092593;28;20024;-72
2022/09/15 01:35:32;;;;;;;12.73;11.63;;;14.60;99.90;;;;;;2093251;28;20488;-72
2022/09/15 01:36:56;;;;;;;13.32;12.07;;;14.60;99.90;;;;;;2096639;28;20028;-72
2022/09/15 01:38:14;;;;;;;14.23;12.93;;;14.60;99.90;;;;;;2097765;28;20116;-72
2022/09/15 01:39:23;;;;;;;14.95;13.38;;;14.60;99.90;;;;;;2091376;28;20091;-72
2022/09/15 01:40:31;;;;;;;17.00;14.80;;;14.50;99.90;;;;;;2091219;28;20080;-72
2022/09/15 01:41:41;;;;;;;17.33;15.57;;;14.50;99.90;;;;;;2099492;28;20434;-72
2022/09/15 01:42:43;;;;;;;;;;;14.50;99.90;;;;;;2097714;28;20123;-72
2022/09/15 01:44:17;;;;;;;17.02;15.25;;;14.50;99.90;;;;;;2091071;28;20387;-72
2022/09/15 01:45:24;;;;;;;14.50;13.20;;;14.50;99.90;;;;;;2087487;28;20043;-72
2022/09/15 01:46:28;;;;;;;15.27;13.52;;;14.50;99.90;;;;;;2092274;28;20021;-72
2022/09/15 01:47:29;;;;;;;13.27;11.90;;;14.40;99.90;;;;;;2092876;28;20024;-72
2022/09/15 01:48:32;;;;;;;14.23;12.82;;;14.50;99.90;;;;;;2093001;28;20463;-72
2022/09/15 01:49:48;;;;;;;15.02;13.27;;;14.50;99.90;;;;;;2094991;28;20136;-72
2022/09/15 01:50:53;;;;;;;15.88;14.18;;;14.40;99.90;;;;;;2093883;28;20029;-72
2022/09/15 01:51:54;;;;;;;15.05;13.55;;;14.50;99.90;;;;;;2091063;28;20033;-72
2022/09/15 01:53:00;;;;;;;15.88;12.68;;;14.40;99.90;;;;;;2093069;28;20025;-72
2022/09/15 01:54:04;;;;;;;15.23;13.73;;;14.50;99.90;;;;;;2093134;28;20021;-72
2022/09/15 01:55:12;;;;;;;12.70;11.48;;;14.40;99.90;;;;;;2093162;28;20159;-72
2022/09/15 01:56:13;;;;;;;14.18;12.77;;;14.40;99.90;;;;;;2093139;28;20039;-72
2022/09/15 01:57:21;;;;;;;15.98;14.15;;;14.40;99.90;;;;;;2091127;28;20487;-72
2022/09/15 01:58:22;;;;;;;15.05;13.55;;;14.40;99.90;;;;;;2093624;28;20044;-72
2022/09/15 01:59:22;;;;;;;15.80;14.18;;;14.40;99.90;;;;;;2093144;28;20028;-72
2022/09/15 02:00:23;;;;;;;15.43;12.35;;;14.40;99.90;;;;;;2093105;28;20025;-72
2022/09/15 02:01:43;;;;;;;15.98;14.02;;;14.40;99.90;;;;;;2092490;28;20024;-72
2022/09/15 02:02:53;;;;;;;;;;;14.40;99.90;;;;;;2094545;28;20036;-72
2022/09/15 02:04:06;;;;;;;16.45;14.80;;;14.30;99.90;;;;;;2091682;28;19947;-72
2022/09/15 02:05:16;;;;;;;17.33;15.63;;;14.30;99.90;;;;;;2091837;28;20043;-72
2022/09/15 02:06:30;;;;;;;18.35;16.38;;;14.30;99.90;;;;;;2092315;28;20464;-72
2022/09/15 02:07:40;;;;;;;16.15;14.55;;;14.30;99.90;;;;;;2093362;28;20073;-72
2022/09/15 02:08:57;;;;;;;16.80;14.63;;;14.30;99.90;;;;;;2101454;28;20457;-72
2022/09/15 02:10:20;;;;;;;18.63;16.65;;;14.30;99.90;;;;;;2097942;28;20028;-72
2022/09/15 02:11:25;;;;;;;17.90;15.95;;;14.30;99.90;;;;;;2092841;28;20052;-72
2022/09/15 02:12:33;;;;;;;17.27;14.23;;;14.30;99.90;;;;;;2099209;28;20028;-72
2022/09/15 02:14:01;;;;;;;16.80;15.18;;;14.40;99.90;;;;;;2099213;28;20039;-73
2022/09/15 02:15:07;;;;;;;16.80;15.15;;;14.30;99.90;;;;;;2088795;28;20041;-73
2022/09/15 02:16:18;;;;;;;14.75;13.27;;;14.30;99.90;;;;;;2093371;28;20031;-72
2022/09/15 02:17:20;;;;;;;16.63;14.80;;;14.30;99.90;;;;;;2092898;28;20025;-72
2022/09/15 02:18:46;;;;;;;16.05;13.75;;;14.40;99.90;;;;;;2099053;28;20025;-73
2022/09/15 02:20:10;;;;;;;17.33;15.23;;;14.40;99.90;;;;;;2097414;28;20025;-72
2022/09/15 02:21:19;;;;;;;16.00;14.50;;;14.30;99.90;;;;;;2100514;28;20314;-72
2022/09/15 02:22:27;;;;;;;17.80;14.07;;;14.30;99.90;;;;;;2098868;28;20023;-72
2022/09/15 02:23:35;;;;;;;15.82;14.30;;;14.30;99.90;;;;;;2093175;28;20139;-72
2022/09/15 02:24:42;;;;;;;16.05;14.45;;;14.30;99.90;;;;;;2100724;28;20078;-73
2022/09/15 02:25:47;;;;;;;16.35;14.75;;;14.30;99.90;;;;;;2099261;28;20023;-72
2022/09/15 02:26:50;;;;;;;19.58;17.08;;;14.30;99.90;;;;;;2093587;28;20345;-73
2022/09/15 02:27:54;;;;;;;17.40;15.30;;;14.40;99.90;;;;;;2092239;28;20017;-73
2022/09/15 02:28:59;;;;;;;18.27;16.33;;;14.40;99.90;;;;;;2093682;28;20030;-72
2022/09/15 02:30:05;;;;;;;16.90;15.30;;;14.40;99.90;;;;;;2091477;28;20035;-72
2022/09/15 02:31:10;;;;;;;16.08;14.10;;;14.40;99.90;;;;;;2093046;28;20043;-73
2022/09/15 02:32:14;;;;;;;14.00;12.32;;;14.40;99.90;;;;;;2094004;28;20024;-72
2022/09/15 02:33:19;;;;;;;17.10;15.23;;;14.40;99.90;;;;;;2093722;28;20654;-72
2022/09/15 02:34:30;;;;;;;16.73;15.13;;;14.40;99.90;;;;;;2091164;28;20024;-72
2022/09/15 02:35:33;;;;;;;18.00;16.17;;;14.40;99.90;;;;;;2091865;28;20079;-72
2022/09/15 02:36:34;;;;;;;16.42;14.82;;;14.40;99.90;;;;;;2093546;28;20025;-72
2022/09/15 02:37:37;;;;;;;13.45;12.07;;;14.40;99.90;;;;;;2091193;28;20021;-73
2022/09/15 02:38:42;;;;;;;17.40;14.35;;;14.40;99.90;;;;;;2092927;28;20062;-72
2022/09/15 02:39:49;;;;;;;14.45;13.05;;;14.40;99.90;;;;;;2092974;28;20012;-72
2022/09/15 02:40:50;;;;;;;12.63;11.38;;;14.40;99.90;;;;;;2094411;28;20087;-72
2022/09/15 02:41:51;;;;;;;17.70;14.68;;;14.40;99.90;;;;;;2095009;28;20261;-72
2022/09/15 02:42:56;;;;;;;15.20;13.60;;;14.40;99.90;;;;;;2092314;28;20477;-72
2022/09/15 02:43:57;;;;;;;19.30;17.38;;;14.40;99.90;;;;;;2094453;28;20032;-72
2022/09/15 02:44:59;;;;;;;18.20;16.17;;;14.40;99.90;;;;;;2093672;28;20471;-72
2022/09/15 02:46:00;;;;;;;15.68;14.05;;;14.40;99.90;;;;;;2093320;28;20032;-72
2022/09/15 02:47:01;;;;;;;15.60;14.10;;;14.40;99.90;;;;;;2092024;28;20037;-73
2022/09/15 02:48:01;;;;;;;18.08;15.43;;;14.40;99.90;;;;;;2093534;28;20086;-72
2022/09/15 02:49:02;;;;;;;17.27;14.77;;;14.40;99.90;;;;;;2096623;28;20095;-72
2022/09/15 02:50:03;;;;;;;14.43;12.93;;;14.50;99.90;;;;;;2097158;28;20040;-72
2022/09/15 02:51:04;;;;;;;15.15;12.65;;;14.40;99.90;;;;;;2091435;28;20032;-72
2022/09/15 02:52:05;;;;;;;15.88;11.55;;;14.40;99.90;;;;;;2093623;28;20480;-72
2022/09/15 02:53:06;;;;;;;16.10;14.40;;;14.40;99.90;;;;;;2091557;28;20040;-73
2022/09/15 02:54:07;;;;;;;16.35;14.63;;;14.40;99.90;;;;;;2092820;28;20109;-73
2022/09/15 02:55:09;;;;;;;17.80;14.48;;;14.40;99.90;;;;;;2092629;28;20028;-72
2022/09/15 02:56:09;;;;;;;17.83;16.00;;;14.40;99.90;;;;;;2092622;28;20025;-72
2022/09/15 02:57:10;;;;;;;16.52;14.60;;;14.40;99.90;;;;;;2093700;28;20021;-72
2022/09/15 02:58:10;;;;;;;14.70;13.18;;;14.50;99.90;;;;;;2092062;28;20051;-72
2022/09/15 02:59:11;;;;;;;16.88;15.27;;;14.50;99.90;;;;;;2093514;28;20439;-73
2022/09/15 03:00:13;;;;;;;18.40;15.45;;;14.50;99.90;;;;;;2092577;28;20021;-72
2022/09/15 03:01:14;;;;;;;17.08;15.48;;;14.40;99.90;;;;;;2092244;28;20024;-72
2022/09/15 03:02:16;;;;;;;15.93;14.18;;;14.50;99.90;;;;;;2094207;28;20020;-72
2022/09/15 03:03:19;;;;;;;16.67;14.55;;;14.50;99.90;;;;;;2093460;28;20023;-72
2022/09/15 03:04:20;;;;;;;18.20;16.38;;;14.50;99.90;;;;;;2092055;28;20013;-72
2022/09/15 03:05:26;;;;;;;19.33;16.95;;;14.50;99.90;;;;;;2093513;28;20479;-72
2022/09/15 03:06:33;;;;;;;19.95;17.77;;;14.50;99.90;;;;;;2093477;28;20016;-72
2022/09/15 03:07:36;;;;;;;25.00;19.27;;;14.50;99.90;;;;;;2093641;28;20059;-73
2022/09/15 03:08:36;;;;;;;21.75;19.45;;;14.50;99.90;;;;;;2094418;28;20017;-72
2022/09/15 03:09:37;;;;;;;24.60;20.25;;;14.50;99.90;;;;;;2094675;28;20073;-73
2022/09/15 03:10:38;;;;;;;24.60;20.90;;;14.60;99.90;;;;;;2093964;28;20056;-73
2022/09/15 03:11:38;;;;;;;22.00;17.17;;;14.60;99.90;;;;;;2093162;28;20024;-72
2022/09/15 03:12:46;;;;;;;20.30;18.30;;;14.60;99.90;;;;;;2094650;28;20407;-73
2022/09/15 03:13:51;;;;;;;18.42;16.52;;;14.60;99.90;;;;;;2093097;28;20154;-72
2022/09/15 03:14:51;;;;;;;19.17;17.27;;;14.60;99.90;;;;;;2093074;28;20028;-72
2022/09/15 03:15:52;;;;;;;21.10;18.92;;;14.60;99.90;;;;;;2091814;28;20025;-72
2022/09/15 03:16:52;;;;;;;20.52;18.42;;;14.60;99.90;;;;;;2093589;28;20056;-72
2022/09/15 03:17:53;;;;;;;21.33;18.85;;;14.60;99.90;;;;;;2092205;28;20103;-72
2022/09/15 03:18:55;;;;;;;19.55;17.42;;;14.60;99.90;;;;;;2099745;28;20110;-72
2022/09/15 03:19:56;;;;;;;23.73;18.58;;;14.70;99.90;;;;;;2100849;28;20032;-72
2022/09/15 03:20:56;;;;;;;22.95;19.83;;;14.70;99.90;;;;;;2093106;28;20100;-73
2022/09/15 03:21:57;;;;;;;22.02;18.27;;;14.70;99.90;;;;;;2094187;28;20446;-72
2022/09/15 03:22:57;;;;;;;22.85;19.02;;;14.70;99.90;;;;;;2091395;28;20041;-73
2022/09/15 03:23:58;;;;;;;24.35;19.23;;;14.70;99.90;;;;;;2092825;28;20036;-72
2022/09/15 03:25:00;;;;;;;21.98;17.98;;;14.70;99.90;;;;;;2090972;28;20091;-72
2022/09/15 03:26:01;;;;;;;21.33;18.65;;;14.70;99.90;;;;;;2089832;28;20021;-73
2022/09/15 03:27:02;;;;;;;21.17;18.70;;;14.80;99.90;;;;;;2092597;28;20603;-72
2022/09/15 03:28:03;;;;;;;23.42;19.50;;;14.80;99.90;;;;;;2092688;28;20377;-73
2022/09/15 03:29:03;;;;;;;21.17;18.90;;;14.80;99.90;;;;;;2091810;28;20120;-72
2022/09/15 03:30:05;;;;;;;20.17;18.10;;;14.80;99.90;;;;;;2093611;28;20033;-72
2022/09/15 03:31:07;;;;;;;24.15;20.17;;;14.80;99.90;;;;;;2093248;28;20666;-73
2022/09/15 03:32:07;;;;;;;22.90;18.92;;;14.80;99.90;;;;;;2094276;28;20021;-72
2022/09/15 03:33:08;;;;;;;28.08;20.52;;;14.80;99.90;;;;;;2092707;28;20025;-73
2022/09/15 03:34:09;;;;;;;22.38;20.00;;;14.90;99.90;;;;;;2093006;28;20024;-72
2022/09/15 03:35:09;;;;;;;22.88;20.55;;;14.90;99.90;;;;;;2093957;28;20024;-73
2022/09/15 03:36:10;;;;;;;24.50;20.40;;;14.90;99.90;;;;;;2092464;28;20476;-72
2022/09/15 03:37:10;;;;;;;25.85;21.02;;;14.90;99.90;;;;;;2084248;28;20049;-73
2022/09/15 03:38:11;;;;;;;23.45;20.95;;;14.90;99.90;;;;;;2091204;28;20119;-73
2022/09/15 03:39:12;;;;;;;26.95;21.45;;;14.90;99.90;;;;;;2090365;28;20021;-73
2022/09/15 03:40:13;;;;;;;27.45;22.75;;;15.00;99.90;;;;;;2094022;28;20535;-73
2022/09/15 03:41:13;;;;;;;25.20;21.98;;;15.00;99.90;;;;;;2091745;28;20072;-73
2022/09/15 03:42:14;;;;;;;27.95;20.38;;;15.00;99.90;;;;;;2092677;28;20028;-73
2022/09/15 03:43:14;;;;;;;26.52;21.33;;;15.00;99.90;;;;;;2092534;28;20020;-73
2022/09/15 03:44:15;;;;;;;27.95;21.15;;;15.00;99.90;;;;;;2091729;28;20028;-72
2022/09/15 03:45:16;;;;;;;24.75;22.10;;;15.00;99.90;;;;;;2099513;28;20025;-72
2022/09/15 03:46:16;;;;;;;22.42;19.80;;;15.00;99.90;;;;;;2099965;28;20082;-72
2022/09/15 03:47:17;;;;;;;26.20;21.20;;;15.00;99.90;;;;;;2090825;28;20037;-73
2022/09/15 03:48:18;;;;;;;25.23;21.15;;;15.00;99.90;;;;;;2092519;28;20134;-72
2022/09/15 03:49:18;;;;;;;24.00;21.33;;;15.00;99.90;;;;;;2093495;28;20051;-73
2022/09/15 03:50:19;;;;;;;24.38;21.15;;;15.10;99.90;;;;;;2092340;28;20082;-72
2022/09/15 03:51:19;;;;;;;25.40;20.50;;;15.10;99.90;;;;;;2099872;28;20016;-73
2022/09/15 03:52:20;;;;;;;24.02;21.55;;;15.10;99.90;;;;;;2100554;28;20460;-73
2022/09/15 03:53:21;;;;;;;24.33;21.15;;;15.10;99.90;;;;;;2093032;28;20399;-74
2022/09/15 03:54:21;;;;;;;22.25;19.90;;;15.10;99.90;;;;;;2092253;28;20071;-73
2022/09/15 03:55:22;;;;;;;22.98;20.48;;;15.20;99.90;;;;;;2091867;28;20020;-72
2022/09/15 03:56:25;;;;;;;25.80;21.45;;;15.10;99.90;;;;;;2092350;28;20035;-72
2022/09/15 03:57:26;;;;;;;24.13;19.48;;;15.20;99.90;;;;;;2091305;28;20032;-73
2022/09/15 03:58:27;;;;;;;27.75;21.73;;;15.20;99.90;;;;;;2091601;28;20089;-73
2022/09/15 03:59:27;;;;;;;24.48;21.77;;;15.20;99.90;;;;;;2093729;28;20099;-72
2022/09/15 04:00:28;;;;;;;26.02;21.75;;;15.20;99.90;;;;;;2090845;28;20020;-72
2022/09/15 04:01:29;;;;;;;27.20;20.85;;;15.20;99.90;;;;;;2091968;28;20430;-72
2022/09/15 04:02:30;;;;;;;23.98;21.23;;;15.20;99.90;;;;;;2093637;28;20071;-73
2022/09/15 04:03:30;;;;;;;26.75;21.52;;;15.20;99.90;;;;;;2091610;28;20071;-72
2022/09/15 04:04:31;;;;;;;26.05;23.23;;;15.30;99.90;;;;;;2093160;28;20120;-72
2022/09/15 04:05:32;;;;;;;23.33;20.02;;;15.30;99.90;;;;;;2093665;28;20135;-73
2022/09/15 04:06:34;;;;;;;27.40;21.58;;;15.30;99.90;;;;;;2093515;28;20052;-73
2022/09/15 04:07:35;;;;;;;23.95;21.35;;;15.30;99.90;;;;;;2091413;28;20025;-73
2022/09/15 04:08:35;;;;;;;25.13;21.02;;;15.30;99.90;;;;;;2091942;28;20024;-73
2022/09/15 04:09:36;;;;;;;29.10;22.42;;;15.30;99.90;;;;;;2092883;28;20024;-72
2022/09/15 04:10:37;;;;;;;26.25;22.98;;;15.30;99.90;;;;;;2092716;28;20468;-72
2022/09/15 04:11:39;;;;;;;28.63;21.80;;;15.30;99.90;;;;;;2095453;28;20029;-73
2022/09/15 04:12:40;;;;;;;28.83;22.58;;;15.30;99.90;;;;;;2095462;28;20009;-73
2022/09/15 04:13:41;;;;;;;27.38;22.40;;;15.30;99.90;;;;;;2088802;28;20075;-73
2022/09/15 04:14:42;;;;;;;29.88;21.60;;;15.30;99.90;;;;;;2091881;28;20028;-72
2022/09/15 04:15:43;;;;;;;27.45;22.13;;;15.30;99.90;;;;;;2093592;28;20079;-73
2022/09/15 04:16:43;;;;;;;25.23;21.75;;;15.30;99.90;;;;;;2092099;28;20392;-73
2022/09/15 04:17:45;;;;;;;27.55;22.42;;;15.40;99.90;;;;;;2091433;28;20451;-72
2022/09/15 04:18:45;;;;;;;26.27;22.48;;;15.40;99.90;;;;;;2091724;28;20025;-73
2022/09/15 04:19:46;;;;;;;24.35;21.75;;;15.40;99.90;;;;;;2092326;28;20029;-72
2022/09/15 04:20:46;;;;;;;24.90;21.65;;;15.40;99.90;;;;;;2092569;28;20521;-72
2022/09/15 04:21:47;;;;;;;25.85;21.27;;;15.40;99.90;;;;;;2091795;28;20083;-72
2022/09/15 04:22:48;;;;;;;24.63;21.48;;;15.40;99.90;;;;;;2091912;28;20021;-73
2022/09/15 04:23:49;;;;;;;26.05;20.27;;;15.40;99.90;;;;;;2091189;28;20024;-72
2022/09/15 04:24:49;;;;;;;24.83;22.17;;;15.40;99.90;;;;;;2092511;28;20032;-72
2022/09/15 04:25:55;;;;;;;25.85;21.90;;;15.40;99.90;;;;;;2092364;28;20028;-73
2022/09/15 04:26:56;;;;;;;25.23;20.65;;;15.50;99.90;;;;;;2090737;28;20633;-72
2022/09/15 04:27:56;;;;;;;23.40;20.85;;;15.50;99.90;;;;;;2093095;28;20105;-72
2022/09/15 04:28:57;;;;;;;24.13;20.02;;;15.50;99.90;;;;;;2092741;28;20037;-72
2022/09/15 04:29:58;;;;;;;23.80;19.02;;;15.40;99.90;;;;;;2093075;28;20029;-72
2022/09/15 04:31:03;;;;;;;22.55;19.17;;;15.50;99.90;;;;;;2092608;28;20027;-73
2022/09/15 04:32:04;;;;;;;23.60;19.75;;;15.50;99.90;;;;;;2091659;28;20456;-73
2022/09/15 04:33:04;;;;;;;22.15;19.85;;;15.50;99.90;;;;;;2089005;28;20029;-72
2022/09/15 04:34:05;;;;;;;24.02;21.48;;;15.50;99.90;;;;;;2092133;28;20036;-73
2022/09/15 04:35:06;;;;;;;24.55;21.10;;;15.50;99.90;;;;;;2091792;28;20033;-73
2022/09/15 04:36:15;;;;;;;25.65;21.75;;;15.50;99.90;;;;;;2090850;28;20016;-73
2022/09/15 04:37:16;;;;;;;26.23;21.55;;;15.50;99.90;;;;;;2091549;28;20123;-72
2022/09/15 04:38:16;;;;;;;23.55;21.05;;;15.50;99.90;;;;;;2093995;28;20016;-72
2022/09/15 04:39:18;;;;;;;26.25;21.20;;;15.50;99.90;;;;;;2092334;28;20016;-73
2022/09/15 04:40:19;;;;;;;25.55;18.55;;;15.50;99.90;;;;;;2093987;28;20021;-72
2022/09/15 04:41:20;;;;;;;24.17;20.30;;;15.60;99.90;;;;;;2093877;28;20024;-73
2022/09/15 04:42:21;;;;;;;25.65;20.73;;;15.60;99.90;;;;;;2094515;28;20419;-73
2022/09/15 04:43:21;;;;;;;23.10;19.38;;;15.60;99.90;;;;;;2094144;28;20025;-73
2022/09/15 04:44:22;;;;;;;22.88;20.13;;;15.60;99.90;;;;;;2094043;28;20037;-73
2022/09/15 04:45:22;;;;;;;23.13;20.52;;;15.60;99.90;;;;;;2094245;28;20078;-73
2022/09/15 04:46:23;;;;;;;27.15;21.40;;;15.60;99.90;;;;;;2091217;28;20033;-72
2022/09/15 04:47:24;;;;;;;21.40;19.05;;;15.60;99.90;;;;;;2092387;28;20013;-73
2022/09/15 04:48:25;;;;;;;22.88;20.45;;;15.60;99.90;;;;;;2091859;28;20183;-72
2022/09/15 04:49:25;;;;;;;26.98;20.92;;;15.60;99.90;;;;;;2090658;28;20119;-72
2022/09/15 04:50:26;;;;;;;22.92;20.38;;;15.60;99.90;;;;;;2091881;28;20447;-72
2022/09/15 04:51:26;;;;;;;29.15;20.23;;;15.60;99.90;;;;;;2092340;28;20245;-73
2022/09/15 04:52:27;;;;;;;25.58;21.27;;;15.60;99.90;;;;;;2095293;28;20123;-72
2022/09/15 04:53:28;;;;;;;23.45;20.88;;;15.70;99.90;;;;;;2094823;28;20104;-72
2022/09/15 04:54:29;;;;;;;25.60;21.63;;;15.60;99.90;;;;;;2094380;28;20021;-73
2022/09/15 04:55:31;;;;;;;28.38;21.60;;;15.70;99.90;;;;;;2093811;28;20040;-73
2022/09/15 04:56:32;;;;;;;23.25;20.73;;;15.70;99.90;;;;;;2091496;28;20040;-73
2022/09/15 04:57:33;;;;;;;24.83;21.40;;;15.70;99.90;;;;;;2092128;28;20024;-73
2022/09/15 04:58:41;;;;;;;24.83;21.75;;;15.70;99.90;;;;;;2093024;28;20017;-72
2022/09/15 04:59:42;;;;;;;24.42;20.42;;;15.70;99.90;;;;;;2092290;28;20031;-72
2022/09/15 05:00:42;;;;;;;27.55;20.73;;;15.70;99.90;;;;;;2094417;28;20043;-72
2022/09/15 05:01:44;;;;;;;24.50;19.77;;;15.70;99.90;;;;;;2091309;28;20025;-72
2022/09/15 05:02:45;;;;;;;27.05;21.48;;;15.70;99.90;;;;;;2093083;28;20108;-72
2022/09/15 05:03:46;;;;;;;25.38;21.92;;;15.70;99.90;;;;;;2091508;28;20025;-72
2022/09/15 05:04:47;;;;;;;25.65;21.83;;;15.70;99.90;;;;;;2099700;28;20051;-73
2022/09/15 05:05:48;;;;;;;26.70;21.13;;;15.70;99.90;;;;;;2099998;28;20074;-72
2022/09/15 05:06:49;;;;;;;23.58;20.02;;;15.70;99.90;;;;;;2092733;28;20025;-72
2022/09/15 05:07:50;;;;;;;24.77;21.25;;;15.70;99.90;;;;;;2090361;28;20020;-73
2022/09/15 05:08:53;;;;;;;23.92;20.58;;;15.70;99.90;;;;;;2093311;28;20032;-73
2022/09/15 05:09:53;;;;;;;29.45;21.52;;;15.80;99.90;;;;;;2094015;28;20507;-73
2022/09/15 05:11:02;;;;;;;24.30;21.17;;;15.70;99.90;;;;;;2090855;28;20106;-73
2022/09/15 05:12:02;;;;;;;25.80;20.95;;;15.80;99.90;;;;;;2089402;28;20075;-73
2022/09/15 05:13:03;;;;;;;24.00;19.80;;;15.80;99.90;;;;;;2092226;28;20525;-72
2022/09/15 05:14:04;;;;;;;22.88;18.95;;;15.80;99.90;;;;;;2093507;28;20032;-73
2022/09/15 05:15:06;;;;;;;21.58;19.25;;;15.80;99.90;;;;;;2090667;28;20027;-73
2022/09/15 05:16:13;;;;;;;24.60;21.25;;;15.80;99.90;;;;;;2090854;28;20111;-72
2022/09/15 05:17:13;;;;;;;26.88;20.33;;;15.80;99.90;;;;;;2093760;28;20029;-72
2022/09/15 05:18:14;;;;;;;26.75;20.48;;;15.80;99.90;;;;;;2093067;28;20021;-73
2022/09/15 05:19:14;;;;;;;26.98;19.58;;;15.80;99.90;;;;;;2090576;28;20159;-73
2022/09/15 05:20:16;;;;;;;23.67;19.80;;;15.80;99.90;;;;;;2093409;28;20078;-72
2022/09/15 05:21:18;;;;;;;23.73;21.20;;;15.80;99.90;;;;;;2093893;28;20464;-73
2022/09/15 05:22:19;;;;;;;24.90;21.38;;;15.80;99.90;;;;;;2093359;28;20040;-72
2022/09/15 05:23:19;;;;;;;24.33;21.23;;;15.80;99.90;;;;;;2093201;28;20621;-73
2022/09/15 05:24:20;;;;;;;21.52;19.35;;;15.80;99.90;;;;;;2090848;28;20400;-72
2022/09/15 05:25:20;;;;;;;21.45;19.15;;;15.80;99.90;;;;;;2093137;28;20207;-73
2022/09/15 05:26:28;;;;;;;23.05;20.58;;;15.80;99.90;;;;;;2098986;28;20132;-72
2022/09/15 05:27:32;;;;;;;22.67;19.20;;;15.90;99.90;;;;;;2091538;28;20111;-72
2022/09/15 05:28:35;;;;;;;28.48;20.65;;;15.80;99.90;;;;;;2092743;28;20020;-72